Time;durP1;ratioP1;P1;durP2;ratioP2;P2;SDS_P1;SDS_P2;PMS_P1;PMS_P2;Temp;Humidity;BMP_temperature;BMP_pressure;BME280_temperature;BME280_humidity;BME280_pressure;Samples;Min_cycle;Max_cycle;Signal;HPM_P1;HPM_P2
2023/11/30 00:00:32;;;;;;;3.45;1.83;;;14.20;79.40;;;;;;5094405;28;20024;-78
2023/11/30 00:02:57;;;;;;;4.28;2.30;;;14.10;79.40;;;;;;5093185;28;20565;-78
2023/11/30 00:05:23;;;;;;;4.05;2.17;;;14.10;79.40;;;;;;5094928;28;20024;-78
2023/11/30 00:07:48;;;;;;;3.05;1.83;;;14.10;79.50;;;;;;5093548;28;20492;-78
2023/11/30 00:10:14;;;;;;;3.25;1.80;;;14.10;79.50;;;;;;5092877;28;20024;-78
2023/11/30 00:12:39;;;;;;;3.88;2.00;;;14.10;79.50;;;;;;5092391;28;20111;-78
2023/11/30 00:15:05;;;;;;;4.40;2.00;;;14.20;79.50;;;;;;5093226;28;20487;-78
2023/11/30 00:17:31;;;;;;;4.00;2.30;;;14.20;79.40;;;;;;5093138;28;20028;-78
2023/11/30 00:19:56;;;;;;;3.95;2.10;;;14.10;79.40;;;;;;5092993;28;20062;-78
2023/11/30 00:22:22;;;;;;;3.33;1.83;;;14.10;79.40;;;;;;5092849;28;20024;-78
2023/11/30 00:24:47;;;;;;;3.15;1.92;;;14.10;79.40;;;;;;5093270;28;20028;-78
2023/11/30 00:27:13;;;;;;;3.75;1.98;;;14.20;79.40;;;;;;5093158;28;20048;-78
2023/11/30 00:29:38;;;;;;;4.05;2.10;;;14.20;79.40;;;;;;5092578;28;20023;-77
2023/11/30 00:32:04;;;;;;;3.45;1.98;;;14.10;79.40;;;;;;5092786;28;20024;-78
2023/11/30 00:34:30;;;;;;;3.83;2.05;;;14.10;79.40;;;;;;5092737;28;20449;-78
2023/11/30 00:36:55;;;;;;;3.35;1.90;;;14.10;79.40;;;;;;5092930;28;20490;-78
2023/11/30 00:39:20;;;;;;;4.45;2.42;;;14.10;79.50;;;;;;5092513;28;20032;-78
2023/11/30 00:41:46;;;;;;;3.25;1.92;;;14.10;79.50;;;;;;5093814;28;20066;-79
2023/11/30 00:44:11;;;;;;;3.72;2.00;;;14.10;79.50;;;;;;5092305;28;20085;-78
2023/11/30 00:46:37;;;;;;;3.13;2.00;;;14.10;79.50;;;;;;5092592;28;20046;-78
2023/11/30 00:49:02;;;;;;;3.90;1.92;;;14.10;79.50;;;;;;5093453;28;20028;-77
2023/11/30 00:51:29;;;;;;;4.05;2.25;;;14.10;79.40;;;;;;5092460;28;20020;-78
2023/11/30 00:53:55;;;;;;;3.63;2.13;;;14.10;79.40;;;;;;5092472;28;20068;-78
2023/11/30 00:56:20;;;;;;;2.80;1.85;;;14.10;79.40;;;;;;5092400;28;20111;-78
2023/11/30 00:58:46;;;;;;;3.35;1.90;;;14.10;79.40;;;;;;5091815;28;20078;-78
2023/11/30 01:01:11;;;;;;;3.65;2.03;;;14.10;79.40;;;;;;5093336;28;20118;-78
2023/11/30 01:03:36;;;;;;;4.13;2.05;;;14.10;79.40;;;;;;5093498;28;20032;-78
2023/11/30 01:06:02;;;;;;;3.35;1.90;;;14.10;79.50;;;;;;5092001;28;20024;-78
2023/11/30 01:08:27;;;;;;;3.35;1.90;;;14.10;79.50;;;;;;5091691;28;20503;-77
2023/11/30 01:10:53;;;;;;;3.55;2.00;;;14.10;79.40;;;;;;5093433;28;20487;-78
2023/11/30 01:13:18;;;;;;;3.83;2.13;;;14.10;79.40;;;;;;5093683;28;20116;-78
2023/11/30 01:15:44;;;;;;;3.72;2.20;;;14.10;79.40;;;;;;5091970;28;20085;-77
2023/11/30 01:18:09;;;;;;;3.83;1.90;;;14.10;79.50;;;;;;5091976;28;20111;-78
2023/11/30 01:20:35;;;;;;;3.80;1.63;;;14.10;79.50;;;;;;5091781;28;20024;-78
2023/11/30 01:23:01;;;;;;;3.65;2.13;;;14.00;79.50;;;;;;5091685;28;20028;-78
2023/11/30 01:25:26;;;;;;;4.43;2.15;;;14.10;79.50;;;;;;5091713;28;20030;-78
2023/11/30 01:27:52;;;;;;;4.28;2.30;;;14.10;79.50;;;;;;5092855;28;20028;-78
2023/11/30 01:30:18;;;;;;;3.58;2.00;;;14.10;79.50;;;;;;5091360;28;20050;-78
2023/11/30 01:32:43;;;;;;;3.90;2.15;;;14.00;79.30;;;;;;5091693;28;20035;-78
2023/11/30 01:35:09;;;;;;;4.63;2.50;;;14.10;79.50;;;;;;5091732;28;20027;-78
2023/11/30 01:37:34;;;;;;;4.03;2.40;;;14.10;79.50;;;;;;5091741;28;20024;-78
2023/11/30 01:40:00;;;;;;;4.25;2.33;;;14.10;79.50;;;;;;5091288;28;20366;-78
2023/11/30 01:42:25;;;;;;;4.10;2.15;;;14.10;79.50;;;;;;5091585;28;20020;-78
2023/11/30 01:44:51;;;;;;;4.10;2.25;;;14.10;79.50;;;;;;5093057;28;20020;-78
2023/11/30 01:47:16;;;;;;;4.15;2.20;;;14.10;79.40;;;;;;5092609;28;20484;-77
2023/11/30 01:49:42;;;;;;;4.45;2.45;;;14.10;79.40;;;;;;5091307;28;20077;-78
2023/11/30 01:52:09;;;;;;;3.85;2.20;;;14.10;79.50;;;;;;5092864;28;20023;-78
2023/11/30 01:54:35;;;;;;;4.10;2.30;;;14.00;79.50;;;;;;5092654;28;20034;-78
2023/11/30 01:57:02;;;;;;;4.60;2.40;;;14.10;79.50;;;;;;5091625;28;20020;-78
2023/11/30 01:59:28;;;;;;;4.22;2.28;;;14.00;79.50;;;;;;5091314;28;20028;-78
2023/11/30 02:01:54;;;;;;;4.30;2.50;;;14.00;79.40;;;;;;5091584;28;20046;-78
2023/11/30 02:04:21;;;;;;;4.28;2.40;;;14.00;79.40;;;;;;5091598;28;20480;-78
2023/11/30 02:06:47;;;;;;;4.30;2.38;;;14.10;79.50;;;;;;5091425;28;20442;-78
2023/11/30 02:09:13;;;;;;;5.20;2.75;;;14.10;79.50;;;;;;5091091;28;20032;-78
2023/11/30 02:11:39;;;;;;;4.15;2.30;;;14.00;79.40;;;;;;5091377;28;20047;-78
2023/11/30 02:14:05;;;;;;;4.45;2.50;;;14.10;79.40;;;;;;5091434;28;20020;-78
2023/11/30 02:16:31;;;;;;;4.35;2.20;;;14.10;79.40;;;;;;5091354;28;20028;-78
2023/11/30 02:18:56;;;;;;;4.43;2.40;;;14.10;79.40;;;;;;5090746;28;20483;-79
2023/11/30 02:21:23;;;;;;;4.13;2.35;;;14.10;79.40;;;;;;5092488;28;20034;-79
2023/11/30 02:23:49;;;;;;;4.85;2.70;;;14.10;79.50;;;;;;5091402;28;20388;-78
2023/11/30 02:26:16;;;;;;;4.32;2.30;;;14.10;79.50;;;;;;5091070;28;20047;-78
2023/11/30 02:28:42;;;;;;;4.53;2.53;;;14.00;79.50;;;;;;5090825;28;20061;-78
2023/11/30 02:31:07;;;;;;;4.15;2.60;;;14.00;79.50;;;;;;5090999;28;20110;-78
2023/11/30 02:33:33;;;;;;;3.92;2.15;;;14.10;79.50;;;;;;5091131;28;20022;-77
2023/11/30 02:35:58;;;;;;;4.57;2.67;;;14.00;79.50;;;;;;5094397;28;20384;-78
2023/11/30 02:38:24;;;;;;;5.28;2.92;;;14.00;79.50;;;;;;5094880;28;20027;-78
2023/11/30 02:40:49;;;;;;;4.05;2.40;;;14.00;79.50;;;;;;5095003;28;20031;-78
2023/11/30 02:43:15;;;;;;;5.20;2.90;;;14.00;79.50;;;;;;5094960;28;20024;-78
2023/11/30 02:45:40;;;;;;;4.30;2.58;;;14.00;79.50;;;;;;5094780;28;20499;-78
2023/11/30 02:48:06;;;;;;;4.57;2.42;;;14.00;79.50;;;;;;5094526;28;20439;-78
2023/11/30 02:50:31;;;;;;;4.28;2.40;;;14.00;79.50;;;;;;5095855;28;20073;-78
2023/11/30 02:52:58;;;;;;;4.40;2.53;;;14.00;79.50;;;;;;5094750;28;20384;-78
2023/11/30 02:55:23;;;;;;;4.22;2.55;;;14.00;79.60;;;;;;5094937;28;20146;-78
2023/11/30 02:57:49;;;;;;;4.93;2.75;;;14.00;79.60;;;;;;5094582;28;20549;-78
2023/11/30 03:00:15;;;;;;;4.55;2.40;;;14.00;79.50;;;;;;5094293;28;20035;-78
2023/11/30 03:02:40;;;;;;;4.25;2.50;;;14.00;79.60;;;;;;5095897;28;20028;-78
2023/11/30 03:05:06;;;;;;;4.03;2.33;;;14.00;79.60;;;;;;5094452;28;20024;-78
2023/11/30 03:07:32;;;;;;;4.40;2.63;;;14.00;79.60;;;;;;5094468;28;20059;-78
2023/11/30 03:09:57;;;;;;;4.13;2.40;;;14.00;79.50;;;;;;5094159;28;20456;-78
2023/11/30 03:12:23;;;;;;;4.78;2.50;;;14.00;79.50;;;;;;5094260;28;20023;-78
2023/11/30 03:14:48;;;;;;;4.05;2.45;;;14.00;79.60;;;;;;5094384;28;20426;-77
2023/11/30 03:17:14;;;;;;;5.60;2.70;;;14.00;79.70;;;;;;5095509;28;20024;-78
2023/11/30 03:19:39;;;;;;;4.40;2.33;;;14.00;79.60;;;;;;5093982;28;20028;-78
2023/11/30 03:22:05;;;;;;;4.70;2.63;;;14.00;79.60;;;;;;5090993;28;20475;-78
2023/11/30 03:24:30;;;;;;;4.60;2.53;;;14.00;79.70;;;;;;5103013;28;20395;-79
2023/11/30 03:26:56;;;;;;;3.88;2.22;;;14.00;79.70;;;;;;5106592;28;20056;-78
2023/11/30 03:29:21;;;;;;;4.60;2.70;;;13.90;79.60;;;;;;5095137;28;20032;-78
2023/11/30 03:31:47;;;;;;;5.25;3.00;;;14.00;79.70;;;;;;5095623;28;20024;-78
2023/11/30 03:34:13;;;;;;;4.22;2.60;;;14.00;79.70;;;;;;5094001;28;20028;-78
2023/11/30 03:36:39;;;;;;;4.45;2.42;;;14.00;79.60;;;;;;5093858;28;20023;-78
2023/11/30 03:39:04;;;;;;;4.90;2.50;;;13.90;79.60;;;;;;5093536;28;20368;-78
2023/11/30 03:41:30;;;;;;;4.50;2.60;;;14.00;79.70;;;;;;5093610;28;20035;-78
2023/11/30 03:43:56;;;;;;;4.35;2.50;;;13.90;79.70;;;;;;5093849;28;20027;-78
2023/11/30 03:46:24;;;;;;;3.75;2.17;;;13.90;79.60;;;;;;5095185;28;20107;-77
2023/11/30 03:48:50;;;;;;;4.90;2.80;;;13.90;79.60;;;;;;5093526;28;20028;-78
2023/11/30 03:51:16;;;;;;;4.85;2.67;;;13.90;79.70;;;;;;5093666;28;20028;-77
2023/11/30 03:53:41;;;;;;;4.88;2.78;;;13.90;79.70;;;;;;5093595;28;20016;-78
2023/11/30 03:56:07;;;;;;;4.63;2.40;;;14.00;79.70;;;;;;5093692;28;20032;-78
2023/11/30 03:58:33;;;;;;;4.20;2.38;;;13.90;79.70;;;;;;5093369;28;20175;-78
2023/11/30 04:00:58;;;;;;;4.82;2.53;;;13.90;79.70;;;;;;5093467;28;20111;-77
2023/11/30 04:03:24;;;;;;;4.38;2.40;;;13.90;79.70;;;;;;5093571;28;20054;-78
2023/11/30 04:05:49;;;;;;;4.78;2.50;;;13.90;79.70;;;;;;5093315;28;20031;-78
2023/11/30 04:08:15;;;;;;;4.93;2.75;;;13.90;79.70;;;;;;5093962;28;20027;-77
2023/11/30 04:10:40;;;;;;;5.03;2.90;;;13.90;79.80;;;;;;5093259;28;20103;-78
2023/11/30 04:13:06;;;;;;;5.13;2.83;;;13.90;79.70;;;;;;5094406;28;20481;-78
2023/11/30 04:15:31;;;;;;;4.57;2.65;;;13.90;79.70;;;;;;5094113;28;20054;-78
2023/11/30 04:17:57;;;;;;;4.68;2.67;;;14.00;79.70;;;;;;5093012;28;20020;-77
2023/11/30 04:20:22;;;;;;;4.88;2.65;;;13.90;79.70;;;;;;5092704;28;20070;-77
2023/11/30 04:22:48;;;;;;;4.25;2.47;;;13.90;79.80;;;;;;5091717;28;20161;-77
2023/11/30 04:25:13;;;;;;;4.75;2.70;;;13.90;79.80;;;;;;5090625;28;20824;-77
2023/11/30 04:27:39;;;;;;;4.68;2.58;;;13.90;79.80;;;;;;5088810;28;20032;-77
2023/11/30 05:26:27;;;;;;;4.82;2.80;;;13.80;79.80;;;;;;5300911;22;20050;-80
2023/11/30 05:28:53;;;;;;;5.68;3.20;;;13.90;79.90;;;;;;4974360;28;20042;-79
2023/11/30 05:31:18;;;;;;;5.88;3.15;;;13.80;79.90;;;;;;4975986;28;20061;-80
2023/11/30 05:33:44;;;;;;;6.20;3.58;;;13.80;79.80;;;;;;4975272;28;20026;-80
2023/11/30 05:36:10;;;;;;;5.05;2.83;;;13.80;79.80;;;;;;4975802;28;20038;-80
2023/11/30 05:38:35;;;;;;;6.00;3.10;;;13.90;79.80;;;;;;4975749;28;20026;-80
2023/11/30 05:41:01;;;;;;;5.78;2.90;;;13.90;79.80;;;;;;4975793;28;20049;-81
2023/11/30 05:43:26;;;;;;;5.68;3.10;;;13.80;79.80;;;;;;4976040;28;20030;-81
2023/11/30 05:45:53;;;;;;;5.50;3.10;;;13.80;79.80;;;;;;4976075;28;20041;-81
2023/11/30 05:48:18;;;;;;;5.85;3.10;;;13.90;79.90;;;;;;4975653;28;20551;-80
2023/11/30 05:50:43;;;;;;;5.53;3.10;;;13.80;79.80;;;;;;4975876;28;20113;-81
2023/11/30 05:53:09;;;;;;;5.63;3.17;;;13.80;80.30;;;;;;4975915;28;20049;-80
2023/11/30 05:55:35;;;;;;;5.65;3.33;;;13.80;79.80;;;;;;4993232;28;20487;-81
2023/11/30 05:58:01;;;;;;;5.88;3.20;;;13.80;79.70;;;;;;4975868;28;20506;-80
2023/11/30 06:00:27;;;;;;;5.60;3.03;;;13.80;79.70;;;;;;4975564;28;20027;-81
2023/11/30 06:02:52;;;;;;;6.15;3.17;;;13.90;79.70;;;;;;4975712;28;20022;-82
2023/11/30 06:05:18;;;;;;;5.45;3.22;;;13.80;79.60;;;;;;4975511;28;20050;-81
2023/11/30 06:07:44;;;;;;;6.63;3.75;;;13.80;79.50;;;;;;4975632;28;20582;-81
2023/11/30 06:10:10;;;;;;;6.13;3.22;;;13.80;79.60;;;;;;4977602;28;20026;-80
2023/11/30 06:12:37;;;;;;;6.28;3.40;;;13.80;79.50;;;;;;4979754;28;20112;-80
2023/11/30 06:15:02;;;;;;;6.72;3.50;;;13.90;79.60;;;;;;4979658;28;20027;-81
2023/11/30 06:17:28;;;;;;;6.00;3.53;;;13.80;79.60;;;;;;4997043;28;20134;-81
2023/11/30 06:19:53;;;;;;;7.28;3.70;;;13.80;79.60;;;;;;4979323;28;20062;-80
2023/11/30 06:22:19;;;;;;;6.50;3.60;;;13.90;79.60;;;;;;4996864;28;20023;-80
2023/11/30 06:24:44;;;;;;;6.13;3.40;;;13.70;79.50;;;;;;4979334;28;20023;-80
2023/11/30 06:27:10;;;;;;;6.53;3.47;;;13.80;79.50;;;;;;4979283;28;20483;-80
2023/11/30 06:29:35;;;;;;;6.15;3.42;;;13.90;79.60;;;;;;4978732;28;20022;-80
2023/11/30 06:32:01;;;;;;;6.25;3.72;;;13.80;79.50;;;;;;4979150;28;20045;-81
2023/11/30 06:34:28;;;;;;;6.55;3.95;;;13.80;79.60;;;;;;4979127;28;20022;-81
2023/11/30 06:36:54;;;;;;;7.00;4.03;;;13.90;79.60;;;;;;4979256;28;20023;-81
2023/11/30 06:39:19;;;;;;;7.35;4.15;;;13.80;79.50;;;;;;4996448;28;20030;-80
2023/11/30 06:41:48;;;;;;;7.15;3.90;;;13.90;79.60;;;;;;4978966;28;20026;-80
2023/11/30 06:44:14;;;;;;;7.32;4.15;;;13.80;79.50;;;;;;4979243;28;20033;-80
2023/11/30 06:46:42;;;;;;;7.13;4.10;;;13.80;79.50;;;;;;4979196;28;20034;-81
2023/11/30 06:49:08;;;;;;;7.10;4.20;;;13.80;79.50;;;;;;4978574;28;20080;-81
2023/11/30 06:51:33;;;;;;;6.78;3.72;;;13.90;79.50;;;;;;4978781;28;20046;-80
2023/11/30 06:53:59;;;;;;;6.75;3.63;;;13.90;79.50;;;;;;4978788;28;20019;-81
2023/11/30 06:56:24;;;;;;;7.07;3.92;;;13.90;79.50;;;;;;4978827;28;20647;-80
2023/11/30 06:58:50;;;;;;;7.75;4.28;;;13.90;79.60;;;;;;4978562;28;20030;-81
2023/11/30 07:01:16;;;;;;;7.63;4.30;;;13.90;79.60;;;;;;4978534;28;20026;-81
2023/11/30 07:03:42;;;;;;;6.38;3.67;;;13.90;79.50;;;;;;4978710;28;20506;-81
2023/11/30 07:06:08;;;;;;;7.05;3.78;;;13.80;79.50;;;;;;4978744;28;20368;-80
2023/11/30 07:08:33;;;;;;;7.20;4.20;;;13.80;80.00;;;;;;4978498;28;20060;-81
2023/11/30 07:10:58;;;;;;;6.75;3.78;;;13.80;79.50;;;;;;4978619;28;20018;-81
2023/11/30 07:13:24;;;;;;;7.38;4.22;;;13.90;79.60;;;;;;4978433;28;20057;-80
2023/11/30 07:15:49;;;;;;;6.53;4.00;;;13.90;79.60;;;;;;4995998;28;20097;-80
2023/11/30 07:18:16;;;;;;;7.13;4.22;;;13.90;79.60;;;;;;4978318;28;20114;-79
2023/11/30 07:20:41;;;;;;;7.05;4.22;;;13.80;79.50;;;;;;4995584;28;20054;-81
2023/11/30 07:23:07;;;;;;;7.50;4.40;;;13.90;79.60;;;;;;4978421;28;20084;-80
2023/11/30 07:25:33;;;;;;;6.43;3.72;;;13.80;79.50;;;;;;4978151;28;20030;-80
2023/11/30 07:27:59;;;;;;;7.20;4.18;;;13.90;79.60;;;;;;4978082;28;20034;-80
2023/11/30 07:30:25;;;;;;;7.32;4.30;;;13.80;79.50;;;;;;4977903;28;20022;-79
2023/11/30 07:32:53;;;;;;;6.60;3.88;;;13.90;79.60;;;;;;4978132;28;20475;-80
2023/11/30 07:35:18;;;;;;;7.38;3.90;;;13.80;79.50;;;;;;4978228;28;20038;-80
2023/11/30 07:37:44;;;;;;;7.00;3.90;;;13.90;79.70;;;;;;4978062;28;20026;-81
2023/11/30 07:40:10;;;;;;;7.20;3.90;;;13.80;79.60;;;;;;4977778;28;20022;-80
2023/11/30 07:42:35;;;;;;;6.93;3.90;;;13.90;79.70;;;;;;4977829;28;20498;-80
2023/11/30 07:45:02;;;;;;;6.82;3.97;;;13.90;79.60;;;;;;4977955;28;20023;-80
2023/11/30 07:47:28;;;;;;;7.10;4.22;;;13.90;79.60;;;;;;4977752;28;20022;-81
2023/11/30 07:49:54;;;;;;;7.32;4.40;;;13.80;79.50;;;;;;4977851;28;20029;-80
2023/11/30 07:52:19;;;;;;;7.20;4.20;;;13.80;79.60;;;;;;4977998;28;20110;-80
2023/11/30 07:54:45;;;;;;;7.25;4.32;;;13.90;79.70;;;;;;4977546;28;20127;-81
2023/11/30 07:57:10;;;;;;;7.35;4.30;;;13.80;79.60;;;;;;4977150;28;20025;-80
2023/11/30 07:59:36;;;;;;;7.38;4.32;;;13.80;79.60;;;;;;4977217;28;20033;-80
2023/11/30 08:02:01;;;;;;;7.03;4.13;;;13.80;79.60;;;;;;4977472;28;20080;-82
2023/11/30 08:04:27;;;;;;;7.20;4.28;;;13.80;79.60;;;;;;4977349;28;20169;-80
2023/11/30 08:06:52;;;;;;;6.93;4.13;;;13.80;79.60;;;;;;4977437;28;20494;-81
2023/11/30 08:09:18;;;;;;;7.90;4.38;;;13.90;79.70;;;;;;4977132;28;20100;-80
2023/11/30 08:11:45;;;;;;;7.13;4.00;;;13.80;79.60;;;;;;4977422;28;20018;-80
2023/11/30 08:14:10;;;;;;;6.68;3.80;;;13.90;79.70;;;;;;4994795;28;20030;-81
2023/11/30 08:16:36;;;;;;;7.63;4.43;;;13.90;79.70;;;;;;4977427;28;20371;-81
2023/11/30 08:19:01;;;;;;;6.88;4.05;;;13.90;79.70;;;;;;4977026;28;20023;-81
2023/11/30 08:21:27;;;;;;;6.57;4.10;;;13.90;79.70;;;;;;4977038;28;20027;-80
2023/11/30 08:23:53;;;;;;;7.43;4.20;;;13.90;79.70;;;;;;4977220;28;20038;-81
2023/11/30 08:26:19;;;;;;;6.85;4.00;;;13.90;79.60;;;;;;4977315;28;20034;-80
2023/11/30 08:28:46;;;;;;;6.93;4.07;;;13.90;79.60;;;;;;4976818;28;20029;-80
2023/11/30 08:31:12;;;;;;;6.95;4.07;;;13.90;79.60;;;;;;4977174;28;20149;-81
2023/11/30 08:33:38;;;;;;;7.20;4.45;;;13.90;79.60;;;;;;4976347;28;20022;-81
2023/11/30 08:36:04;;;;;;;7.47;4.38;;;13.90;79.60;;;;;;4976954;28;20542;-80
2023/11/30 08:38:31;;;;;;;7.55;4.15;;;13.90;79.60;;;;;;4994248;28;20026;-80
2023/11/30 08:40:57;;;;;;;6.53;4.03;;;13.90;79.60;;;;;;4976805;28;20031;-80
2023/11/30 08:43:22;;;;;;;6.80;4.13;;;13.80;79.50;;;;;;4976878;28;20079;-80
2023/11/30 08:45:48;;;;;;;7.22;3.97;;;13.90;79.60;;;;;;4976841;28;20422;-80
2023/11/30 08:48:14;;;;;;;6.60;3.72;;;13.90;79.70;;;;;;4976423;28;20113;-80
2023/11/30 08:50:39;;;;;;;7.70;4.22;;;13.90;79.60;;;;;;4976567;28;20471;-80
2023/11/30 08:53:05;;;;;;;7.05;4.18;;;13.90;79.70;;;;;;4976688;28;20033;-81
2023/11/30 08:55:32;;;;;;;7.50;4.40;;;13.90;79.70;;;;;;4976830;28;20486;-80
2023/11/30 08:57:57;;;;;;;7.05;4.30;;;13.90;79.60;;;;;;4976768;28;20037;-79
2023/11/30 09:00:22;;;;;;;7.10;4.00;;;13.80;79.50;;;;;;4993988;28;20120;-80
2023/11/30 09:02:48;;;;;;;7.15;4.30;;;13.90;79.70;;;;;;4976483;28;20034;-78
2023/11/30 09:05:13;;;;;;;6.80;4.10;;;13.90;79.70;;;;;;4976386;28;20031;-81
2023/11/30 09:07:39;;;;;;;7.07;3.97;;;13.90;79.70;;;;;;4976343;28;20032;-80
2023/11/30 09:10:05;;;;;;;7.47;4.00;;;13.90;79.60;;;;;;4976186;28;20383;-80
2023/11/30 09:12:31;;;;;;;7.15;4.10;;;13.90;79.60;;;;;;4993692;28;20101;-81
2023/11/30 09:14:59;;;;;;;7.22;4.18;;;13.80;79.50;;;;;;4976257;28;20549;-80
2023/11/30 09:17:24;;;;;;;6.78;3.92;;;13.90;79.60;;;;;;4976310;28;20022;-79
2023/11/30 09:19:50;;;;;;;7.10;4.10;;;13.90;79.60;;;;;;4976016;28;20030;-80
2023/11/30 09:22:15;;;;;;;7.05;4.22;;;13.90;79.70;;;;;;4976456;28;20037;-80
2023/11/30 09:24:41;;;;;;;7.18;3.97;;;13.80;79.70;;;;;;4976258;28;20434;-80
2023/11/30 09:27:06;;;;;;;7.70;4.22;;;13.80;79.70;;;;;;4976346;28;20084;-80
2023/11/30 09:29:35;;;;;;;6.95;3.85;;;13.90;79.70;;;;;;4975835;28;20526;-80
2023/11/30 09:32:00;;;;;;;8.20;4.60;;;13.90;79.60;;;;;;4993617;28;20026;-80
2023/11/30 09:34:26;;;;;;;7.43;4.28;;;13.90;79.60;;;;;;4976588;28;20489;-80
2023/11/30 09:36:52;;;;;;;7.00;4.10;;;13.90;80.10;;;;;;4976207;28;20025;-80
2023/11/30 09:39:19;;;;;;;7.10;4.10;;;13.90;79.60;;;;;;4975770;28;20022;-80
2023/11/30 09:41:45;;;;;;;7.35;4.50;;;13.90;79.60;;;;;;4975968;28;20114;-80
2023/11/30 09:44:10;;;;;;;6.85;4.10;;;13.90;79.60;;;;;;4975730;28;20058;-80
2023/11/30 09:46:36;;;;;;;7.22;4.25;;;13.90;79.60;;;;;;4976015;28;20046;-81
2023/11/30 09:49:02;;;;;;;7.05;4.00;;;13.90;79.50;;;;;;4975812;28;20030;-80
2023/11/30 09:51:28;;;;;;;7.28;4.57;;;13.90;79.50;;;;;;4975982;28;20023;-80
2023/11/30 09:53:57;;;;;;;7.03;4.10;;;13.90;79.60;;;;;;4976029;28;20022;-80
2023/11/30 09:56:26;;;;;;;7.22;4.05;;;13.90;79.50;;;;;;4993462;28;20046;-80
2023/11/30 09:58:53;;;;;;;7.43;4.63;;;13.90;79.60;;;;;;4975652;28;20500;-81
2023/11/30 10:01:20;;;;;;;7.60;4.60;;;13.90;79.60;;;;;;4975521;28;20395;-79
2023/11/30 10:03:45;;;;;;;7.07;4.30;;;13.90;79.60;;;;;;4974168;28;20494;-79
2023/11/30 10:06:12;;;;;;;7.28;4.22;;;13.90;79.60;;;;;;4976049;28;20042;-79
2023/11/30 10:08:41;;;;;;;7.72;4.30;;;13.90;79.50;;;;;;4975745;28;20030;-80
2023/11/30 10:11:07;;;;;;;7.53;4.65;;;13.90;79.50;;;;;;4975818;28;20166;-79
2023/11/30 10:13:34;;;;;;;7.43;4.45;;;13.90;79.50;;;;;;4975576;28;20026;-80
2023/11/30 10:15:59;;;;;;;7.80;4.65;;;13.90;79.50;;;;;;4975653;28;20158;-79
2023/11/30 10:18:27;;;;;;;7.05;4.32;;;13.90;79.40;;;;;;4975285;28;20396;-79
2023/11/30 10:20:53;;;;;;;7.18;4.13;;;13.90;79.50;;;;;;4975490;28;20081;-79
2023/11/30 10:23:19;;;;;;;7.28;4.28;;;13.80;79.40;;;;;;4992886;28;20053;-79
2023/11/30 10:25:46;;;;;;;8.02;4.75;;;13.90;79.50;;;;;;4975315;28;20127;-80
2023/11/30 10:28:15;;;;;;;8.55;5.20;;;13.90;79.50;;;;;;4975224;28;20060;-80
2023/11/30 10:30:42;;;;;;;7.35;4.50;;;13.90;79.50;;;;;;4975380;28;20022;-79
2023/11/30 10:33:13;;;;;;;7.35;4.20;;;13.90;79.50;;;;;;4975538;28;20023;-79
2023/11/30 10:35:44;;;;;;;7.72;4.70;;;13.90;79.50;;;;;;4992873;28;20027;-78
2023/11/30 10:38:27;;;;;;;7.03;4.30;;;13.90;79.50;;;;;;4975469;28;20121;-79
2023/11/30 10:41:01;;;;;;;7.32;4.30;;;13.90;79.50;;;;;;4975691;28;20660;-79
2023/11/30 10:43:31;;;;;;;7.05;4.38;;;13.90;79.50;;;;;;4975390;28;20026;-79
2023/11/30 10:45:58;;;;;;;7.00;4.20;;;13.90;79.50;;;;;;4992882;28;20026;-79
2023/11/30 10:48:24;;;;;;;7.70;4.78;;;13.90;79.50;;;;;;4975094;28;20117;-80
2023/11/30 10:50:52;;;;;;;7.07;4.50;;;13.90;79.50;;;;;;4975423;28;20023;-79
2023/11/30 10:53:41;;;;;;;8.38;4.97;;;13.90;79.50;;;;;;4975267;28;20391;-80
2023/11/30 10:56:10;;;;;;;7.55;4.50;;;13.90;79.50;;;;;;4976768;28;20031;-80
2023/11/30 10:58:36;;;;;;;7.50;4.47;;;13.90;79.60;;;;;;4996457;28;20031;-78
2023/11/30 11:01:02;;;;;;;7.55;4.47;;;13.90;79.50;;;;;;4978977;28;20085;-79
2023/11/30 11:03:28;;;;;;;7.20;4.30;;;13.90;79.40;;;;;;4978781;28;20398;-79
2023/11/30 11:05:55;;;;;;;8.32;4.57;;;14.00;79.50;;;;;;4978630;28;20038;-79
2023/11/30 11:08:20;;;;;;;7.88;4.70;;;13.90;79.50;;;;;;4978389;28;20571;-78
2023/11/30 11:10:47;;;;;;;7.28;4.28;;;14.00;79.60;;;;;;4978462;28;20062;-78
2023/11/30 11:13:26;;;;;;;7.07;4.20;;;14.00;79.50;;;;;;4978440;28;20044;-78
2023/11/30 11:15:58;;;;;;;7.63;4.75;;;13.90;79.40;;;;;;4995866;28;20491;-78
2023/11/30 11:18:30;;;;;;;9.43;6.03;;;13.90;79.40;;;;;;4977698;28;20034;-79
2023/11/30 11:20:57;;;;;;;8.48;4.93;;;13.90;78.80;;;;;;4995695;28;20156;-78
2023/11/30 11:23:22;;;;;;;8.25;5.13;;;13.90;79.00;;;;;;4978147;28;20023;-79
2023/11/30 11:25:48;;;;;;;9.60;5.57;;;13.90;79.00;;;;;;4995426;28;20030;-79
2023/11/30 11:28:16;;;;;;;9.15;5.80;;;13.90;79.00;;;;;;4977679;28;20113;-77
2023/11/30 11:30:50;;;;;;;8.60;5.47;;;13.90;78.90;;;;;;4978053;28;20032;-79
2023/11/30 11:33:17;;;;;;;9.52;5.72;;;13.90;78.90;;;;;;4977813;28;20134;-78
2023/11/30 11:35:42;;;;;;;9.25;5.85;;;14.00;78.90;;;;;;4977808;28;20881;-78
2023/11/30 11:38:08;;;;;;;8.93;5.90;;;14.00;78.90;;;;;;4978251;28;20026;-79
2023/11/30 11:40:38;;;;;;;9.35;5.95;;;13.90;78.70;;;;;;4977633;28;20873;-78
2023/11/30 11:43:04;;;;;;;10.27;6.22;;;14.00;78.80;;;;;;4977876;28;20383;-79
2023/11/30 11:45:30;;;;;;;9.75;5.80;;;14.00;78.70;;;;;;4977635;28;20049;-79
2023/11/30 11:47:55;;;;;;;9.95;5.93;;;14.00;78.70;;;;;;4977687;28;20031;-78
2023/11/30 11:50:21;;;;;;;9.63;6.20;;;14.00;78.70;;;;;;4994726;28;20705;-78
2023/11/30 11:52:48;;;;;;;9.23;6.05;;;13.90;78.70;;;;;;4977461;28;20022;-79
2023/11/30 11:55:14;;;;;;;9.63;6.18;;;14.00;78.70;;;;;;4977743;28;20034;-77
2023/11/30 11:57:41;;;;;;;10.05;6.53;;;14.00;78.70;;;;;;4995004;28;20030;-78
2023/11/30 12:00:16;;;;;;;8.82;5.90;;;14.00;78.60;;;;;;4977235;28;20049;-79
2023/11/30 12:02:43;;;;;;;11.00;6.43;;;14.00;78.60;;;;;;4977616;28;20054;-79
2023/11/30 12:05:28;;;;;;;10.38;6.55;;;14.00;78.60;;;;;;4977508;28;20023;-78
2023/11/30 12:07:56;;;;;;;9.57;5.90;;;14.10;78.70;;;;;;4977094;28;20030;-79
2023/11/30 12:10:29;;;;;;;9.18;6.20;;;14.00;78.50;;;;;;4994416;28;20021;-79
2023/11/30 12:13:02;;;;;;;9.88;6.80;;;14.00;78.60;;;;;;4994804;28;20106;-79
2023/11/30 12:15:28;;;;;;;9.88;6.50;;;14.00;78.50;;;;;;4977125;28;20146;-78
2023/11/30 12:17:54;;;;;;;11.48;7.43;;;14.00;78.60;;;;;;4977249;28;20027;-79
2023/11/30 12:20:20;;;;;;;9.75;6.18;;;14.00;78.50;;;;;;4977147;28;20026;-78
2023/11/30 12:22:46;;;;;;;10.43;7.03;;;14.00;78.50;;;;;;4977141;28;20033;-79
2023/11/30 12:25:12;;;;;;;10.45;6.78;;;14.00;78.50;;;;;;4977139;28;20026;-79
2023/11/30 12:27:37;;;;;;;10.50;6.80;;;14.00;78.50;;;;;;4976973;28;20038;-79
2023/11/30 12:30:04;;;;;;;20.35;10.20;;;14.00;78.50;;;;;;4976669;28;20542;-78
2023/11/30 12:32:29;;;;;;;22.88;10.07;;;13.90;77.30;;;;;;4994120;28;20022;-78
2023/11/30 12:34:57;;;;;;;20.23;10.35;;;14.00;76.90;;;;;;4976851;28;20025;-79
2023/11/30 12:37:23;;;;;;;19.30;9.80;;;14.00;76.80;;;;;;4976627;28;20701;-80
2023/11/30 12:39:48;;;;;;;21.63;10.50;;;14.00;76.90;;;;;;4976500;28;20130;-79
2023/11/30 12:42:15;;;;;;;16.02;10.10;;;14.00;77.00;;;;;;4993956;28;20027;-79
2023/11/30 12:44:40;;;;;;;17.23;9.18;;;14.00;77.10;;;;;;4976706;28;20043;-79
2023/11/30 12:47:06;;;;;;;14.35;9.38;;;14.00;77.40;;;;;;4976707;28;20034;-80
2023/11/30 12:49:31;;;;;;;17.73;9.75;;;14.00;77.60;;;;;;4976131;28;20483;-80
2023/11/30 12:51:57;;;;;;;15.82;9.30;;;14.10;77.60;;;;;;4993859;28;20030;-80
2023/11/30 12:54:22;;;;;;;19.05;10.00;;;14.20;77.70;;;;;;4976226;28;20360;-78
2023/11/30 12:56:48;;;;;;;17.42;8.93;;;14.20;77.80;;;;;;4983667;28;20026;-79
2023/11/30 12:59:13;;;;;;;12.75;8.30;;;14.20;77.80;;;;;;4979385;28;20034;-80
2023/11/30 13:01:39;;;;;;;15.77;9.15;;;14.30;77.70;;;;;;4956968;28;20396;-81
2023/11/30 13:04:04;;;;;;;14.48;9.15;;;14.40;77.70;;;;;;4957216;28;20034;-80
2023/11/30 13:06:30;;;;;;;17.13;9.40;;;14.50;77.70;;;;;;4957033;28;20495;-80
2023/11/30 13:08:55;;;;;;;15.52;8.55;;;14.50;78.10;;;;;;4974168;28;20136;-81
2023/11/30 13:11:21;;;;;;;16.77;8.55;;;14.60;78.50;;;;;;4956903;28;20174;-79
2023/11/30 13:13:47;;;;;;;18.58;9.23;;;14.60;79.20;;;;;;4956954;28;20019;-80
2023/11/30 13:16:12;;;;;;;22.23;9.77;;;14.60;79.50;;;;;;4956846;28;20542;-80
2023/11/30 13:18:38;;;;;;;28.05;9.70;;;14.80;80.00;;;;;;4973541;28;20522;-80
2023/11/30 13:21:05;;;;;;;20.25;9.13;;;14.90;81.00;;;;;;4956797;28;20038;-80
2023/11/30 13:23:30;;;;;;;15.20;9.18;;;14.90;80.90;;;;;;4956511;28;20480;-80
2023/11/30 13:25:57;;;;;;;18.15;9.18;;;15.00;80.90;;;;;;4956703;28;20033;-80
2023/11/30 13:28:23;;;;;;;16.00;8.80;;;15.00;80.70;;;;;;4973578;28;20027;-80
2023/11/30 13:30:49;;;;;;;18.83;8.77;;;15.10;80.70;;;;;;4956610;28;20380;-80
2023/11/30 13:33:14;;;;;;;19.08;8.98;;;15.10;80.60;;;;;;4956730;28;20510;-80
2023/11/30 13:35:40;;;;;;;16.98;8.95;;;15.20;80.60;;;;;;4956680;28;20027;-79